createdAt,value
2022-09-16T00:00:55.412Z,75.40
2022-09-16T00:03:23.563Z,75.50
2022-09-16T00:05:52.440Z,75.60
2022-09-16T00:08:20.925Z,75.60
2022-09-16T00:10:49.025Z,75.60
2022-09-16T00:13:18.493Z,75.60
2022-09-16T00:15:46.988Z,75.70
2022-09-16T00:18:15.239Z,75.70
2022-09-16T00:20:46.884Z,75.80
2022-09-16T00:23:14.963Z,75.90
2022-09-16T00:25:43.163Z,75.90
2022-09-16T00:28:11.441Z,76.70
2022-09-16T00:30:40.854Z,75.80
2022-09-16T00:33:09.526Z,76.00
2022-09-16T00:35:37.703Z,76.00
2022-09-16T00:38:05.790Z,75.90
2022-09-16T00:40:33.910Z,76.00
2022-09-16T00:43:02.119Z,76.10
2022-09-16T00:45:31.760Z,76.10
2022-09-16T00:48:02.338Z,76.10
2022-09-16T00:50:32.704Z,76.10
2022-09-16T00:53:00.796Z,76.10
2022-09-16T00:55:29.927Z,76.10
2022-09-16T00:58:00.626Z,76.10
2022-09-16T01:00:29.002Z,76.10
2022-09-16T01:02:57.087Z,76.10
2022-09-16T01:05:26.862Z,76.30
2022-09-16T01:07:55.448Z,76.40
2022-09-16T01:10:24.657Z,76.50
2022-09-16T01:12:55.375Z,76.60
2022-09-16T01:15:23.416Z,76.50
2022-09-16T01:18:01.105Z,76.40
2022-09-16T01:21:23.086Z,76.80
2022-09-16T01:24:24.697Z,76.90
2022-09-16T01:27:14.945Z,76.80
2022-09-16T01:29:54.873Z,76.80
2022-09-16T01:32:25.560Z,76.90
2022-09-16T01:34:55.154Z,76.80
2022-09-16T01:37:27.051Z,76.90
2022-09-16T01:39:59.786Z,77.00
2022-09-16T01:42:31.317Z,76.90
2022-09-16T01:45:01.821Z,76.90
2022-09-16T01:47:34.773Z,77.00
2022-09-16T01:50:04.739Z,76.90
2022-09-16T01:52:38.838Z,76.90
2022-09-16T01:55:08.356Z,76.90
2022-09-16T01:57:38.218Z,77.00
2022-09-16T02:00:07.817Z,77.00
2022-09-16T02:02:39.662Z,77.00
2022-09-16T02:05:09.653Z,76.90
2022-09-16T02:07:39.697Z,77.00
2022-09-16T02:10:10.233Z,76.90
2022-09-16T02:12:39.587Z,76.80
2022-09-16T02:15:09.504Z,77.00
2022-09-16T02:17:42.723Z,77.00
2022-09-16T02:20:11.932Z,77.20
2022-09-16T02:22:42.446Z,77.10
2022-09-16T02:25:10.964Z,77.00
2022-09-16T02:27:39.376Z,77.10
2022-09-16T02:30:09.175Z,77.10
2022-09-16T02:32:39.703Z,77.10
2022-09-16T02:35:08.559Z,77.00
2022-09-16T02:37:40.712Z,77.00
2022-09-16T02:40:11.826Z,77.10
2022-09-16T02:42:39.966Z,77.00
2022-09-16T02:45:09.159Z,77.00
2022-09-16T02:47:41.731Z,77.10
2022-09-16T02:50:11.613Z,77.00
2022-09-16T02:52:40.511Z,77.10
2022-09-16T02:55:12.619Z,77.00
2022-09-16T02:57:41.712Z,77.10
2022-09-16T03:00:10.685Z,77.10
2022-09-16T03:02:40.163Z,77.10
2022-09-16T03:05:09.603Z,77.20
2022-09-16T03:07:37.723Z,77.00
2022-09-16T03:10:06.609Z,77.20
2022-09-16T03:12:52.300Z,77.20
2022-09-16T03:15:38.150Z,77.30
2022-09-16T03:18:33.586Z,77.20
2022-09-16T03:21:02.170Z,77.20
2022-09-16T03:23:37.772Z,77.10
2022-09-16T03:26:08.930Z,77.20
2022-09-16T03:28:39.098Z,77.30
2022-09-16T03:31:08.612Z,77.30
2022-09-16T03:33:40.612Z,77.30
2022-09-16T03:36:09.303Z,77.30
2022-09-16T03:38:37.764Z,77.20
2022-09-16T03:41:07.504Z,77.20
2022-09-16T03:43:41.014Z,77.20
2022-09-16T03:46:11.623Z,77.20
2022-09-16T03:48:41.085Z,77.10
2022-09-16T03:51:09.152Z,77.10
2022-09-16T03:53:37.200Z,77.00
2022-09-16T03:56:05.313Z,77.00
2022-09-16T03:58:33.417Z,77.00
2022-09-16T04:01:01.530Z,76.90
2022-09-16T04:03:33.151Z,77.00
2022-09-16T04:06:03.066Z,76.80
2022-09-16T04:08:31.089Z,77.00
2022-09-16T04:11:00.366Z,76.80
2022-09-16T04:13:30.115Z,76.90
2022-09-16T04:15:58.331Z,76.90
2022-09-16T04:18:26.553Z,76.90
2022-09-16T04:20:57.708Z,76.90
2022-09-16T04:23:27.300Z,76.90
2022-09-16T04:25:56.308Z,77.00
2022-09-16T04:28:24.553Z,77.10
2022-09-16T04:30:52.962Z,76.90
2022-09-16T04:33:21.096Z,77.00
2022-09-16T04:35:49.161Z,76.90
2022-09-16T04:38:17.293Z,77.00
2022-09-16T04:40:46.707Z,77.00
2022-09-16T04:43:15.093Z,77.00
2022-09-16T04:45:43.350Z,77.00
2022-09-16T04:48:11.386Z,77.10
2022-09-16T04:50:39.497Z,77.10
2022-09-16T04:53:07.554Z,77.10
2022-09-16T04:55:35.587Z,77.10
2022-09-16T04:58:04.995Z,76.90
2022-09-16T05:00:33.005Z,76.90
2022-09-16T05:03:01.142Z,77.00
2022-09-16T05:05:29.277Z,77.00
2022-09-16T05:07:57.652Z,76.90
2022-09-16T05:10:25.718Z,77.00
2022-09-16T05:12:54.233Z,77.00
2022-09-16T05:15:23.686Z,77.00
2022-09-16T05:17:51.999Z,77.00
2022-09-16T05:20:20.392Z,76.90
2022-09-16T05:22:51.062Z,77.00
2022-09-16T05:25:19.256Z,77.10
2022-09-16T05:27:47.294Z,77.00
2022-09-16T05:30:17.292Z,77.00
2022-09-16T05:32:46.772Z,77.00
2022-09-16T05:35:14.994Z,77.00
2022-09-16T05:37:43.045Z,76.90
2022-09-16T05:40:11.359Z,77.00
2022-09-16T05:42:39.433Z,77.00
2022-09-16T05:45:08.799Z,77.10
2022-09-16T05:47:36.868Z,77.10
2022-09-16T05:50:07.251Z,77.00
2022-09-16T05:52:35.352Z,77.10
2022-09-16T05:55:03.423Z,77.00
2022-09-16T05:57:31.522Z,77.00
2022-09-16T05:59:59.575Z,77.10
2022-09-16T06:02:27.825Z,77.00
2022-09-16T06:04:56.539Z,77.00
2022-09-16T06:07:26.878Z,77.10
2022-09-16T06:09:55.432Z,77.00
2022-09-16T06:12:23.635Z,77.10
2022-09-16T06:14:51.898Z,77.10
2022-09-16T06:17:20.469Z,77.10
2022-09-16T06:19:48.583Z,77.00
2022-09-16T06:22:16.652Z,77.00
2022-09-16T06:24:46.155Z,77.00
2022-09-16T06:27:14.691Z,77.10
2022-09-16T06:29:42.909Z,77.10
2022-09-16T06:32:11.039Z,77.10
2022-09-16T06:34:39.134Z,77.10
2022-09-16T06:37:07.381Z,77.10
2022-09-16T06:39:35.945Z,77.30
2022-09-16T06:42:05.663Z,77.30
2022-09-16T06:44:41.615Z,77.20
2022-09-16T06:47:09.888Z,77.20
2022-09-16T06:49:37.974Z,77.10
2022-09-16T06:52:06.076Z,77.20
2022-09-16T06:54:34.423Z,77.20
2022-09-16T06:57:02.493Z,77.20
2022-09-16T06:59:32.007Z,77.40
2022-09-16T07:02:00.168Z,77.30
2022-09-16T07:04:28.383Z,77.40
2022-09-16T07:07:09.223Z,77.30
2022-09-16T07:09:37.996Z,77.40
2022-09-16T07:12:06.156Z,77.50
2022-09-16T07:14:37.690Z,77.50
2022-09-16T07:17:06.020Z,77.40
2022-09-16T07:19:34.150Z,77.20
2022-09-16T07:22:02.203Z,77.30
2022-09-16T07:24:30.992Z,77.30
2022-09-16T07:26:59.306Z,77.10
2022-09-16T07:29:27.983Z,77.20
2022-09-16T07:31:57.447Z,77.00
2022-09-16T07:34:25.628Z,76.90
2022-09-16T07:36:53.690Z,76.90
2022-09-16T07:39:22.376Z,76.90
2022-09-16T07:41:50.463Z,76.80
2022-09-16T07:44:20.488Z,76.70
2022-09-16T07:46:51.250Z,76.60
2022-09-16T07:49:21.113Z,76.60
2022-09-16T07:51:49.426Z,76.70
2022-09-16T07:54:18.312Z,76.70
2022-09-16T07:56:46.425Z,76.60
2022-09-16T07:59:18.359Z,76.70
2022-09-16T08:01:48.278Z,76.60
2022-09-16T08:04:16.866Z,76.90
2022-09-16T08:06:46.320Z,76.80
2022-09-16T08:09:37.351Z,76.60
2022-09-16T08:12:04.130Z,76.50
2022-09-16T08:14:33.272Z,76.50
2022-09-16T08:17:02.825Z,76.50
2022-09-16T08:19:30.928Z,76.40
2022-09-16T08:22:00.394Z,76.40
2022-09-16T08:24:28.505Z,76.40
2022-09-16T08:29:29.739Z,76.30
2022-09-16T08:31:57.878Z,76.20
2022-09-16T08:34:26.091Z,76.20
2022-09-16T08:36:54.198Z,76.30
2022-09-16T08:39:23.624Z,76.20
2022-09-16T08:42:05.104Z,76.10
2022-09-16T08:44:37.685Z,75.90
2022-09-16T08:47:08.513Z,75.90
2022-09-16T08:49:38.240Z,75.90
2022-09-16T08:52:11.593Z,75.80
2022-09-16T08:54:43.343Z,75.80
2022-09-16T08:57:14.728Z,75.80
2022-09-16T08:59:46.339Z,75.70
2022-09-16T09:02:36.823Z,75.60
2022-09-16T09:05:14.839Z,75.60
2022-09-16T09:07:49.488Z,75.60
2022-09-16T09:10:24.523Z,75.50
2022-09-16T09:12:57.393Z,75.50
2022-09-16T09:15:31.257Z,75.40
2022-09-16T09:18:08.180Z,75.50
2022-09-16T09:20:41.286Z,75.40
2022-09-16T09:23:17.002Z,75.30
2022-09-16T09:25:50.311Z,75.20
2022-09-16T09:28:37.802Z,75.20
2022-09-16T09:31:13.910Z,75.20
2022-09-16T09:36:37.620Z,75.10
2022-09-16T09:39:13.797Z,75.10
2022-09-16T09:41:45.979Z,75.00
2022-09-16T09:44:43.069Z,75.00
2022-09-16T09:47:13.010Z,75.00
2022-09-16T09:49:43.758Z,74.90
2022-09-16T09:52:15.091Z,74.80
2022-09-16T09:54:45.020Z,75.80
2022-09-16T09:57:15.905Z,74.80
2022-09-16T09:59:46.355Z,74.80
2022-09-16T10:02:16.953Z,74.80
2022-09-16T10:04:45.156Z,74.80
2022-09-16T10:07:13.525Z,74.70
2022-09-16T10:09:48.109Z,74.70
2022-09-16T10:12:27.813Z,74.70
2022-09-16T10:14:55.979Z,74.70
2022-09-16T10:17:24.017Z,74.70
2022-09-16T10:19:53.959Z,74.70
2022-09-16T10:22:25.003Z,74.60
2022-09-16T10:24:57.050Z,74.70
2022-09-16T10:27:28.331Z,74.60
2022-09-16T10:30:07.323Z,74.60
2022-09-16T10:32:39.098Z,74.60
2022-09-16T10:35:08.508Z,74.60
2022-09-16T10:37:37.559Z,74.50
2022-09-16T10:40:07.755Z,74.50
2022-09-16T10:42:37.248Z,74.50
2022-09-16T10:45:11.611Z,74.50
2022-09-16T10:47:39.780Z,74.50
2022-09-16T10:50:08.707Z,74.50
2022-09-16T10:52:42.869Z,74.50
2022-09-16T10:55:23.183Z,74.40
2022-09-16T10:57:52.720Z,74.40
2022-09-16T11:00:22.055Z,74.40
2022-09-16T11:03:20.140Z,74.50
2022-09-16T11:05:53.945Z,74.50
2022-09-16T11:08:25.183Z,74.40
2022-09-16T11:10:56.163Z,74.40
2022-09-16T11:13:45.683Z,74.40
2022-09-16T11:16:28.206Z,74.40
2022-09-16T11:18:58.922Z,74.40
2022-09-16T11:21:56.815Z,74.40
2022-09-16T11:25:02.387Z,74.40
2022-09-16T11:27:43.072Z,74.30
2022-09-16T11:30:13.589Z,74.20
2022-09-16T11:32:57.543Z,74.20
2022-09-16T11:36:00.939Z,74.20
2022-09-16T11:38:42.284Z,74.20
2022-09-16T11:41:16.537Z,74.00
2022-09-16T11:44:13.403Z,74.00
2022-09-16T11:46:46.870Z,74.10
2022-09-16T11:49:23.331Z,73.90
2022-09-16T11:52:01.969Z,73.90
2022-09-16T11:54:48.723Z,73.80
2022-09-16T11:57:19.671Z,73.80
2022-09-16T11:59:51.247Z,73.80
2022-09-16T12:02:23.714Z,73.70
2022-09-16T12:04:55.021Z,73.80
2022-09-16T12:07:26.608Z,73.80
2022-09-16T12:09:56.997Z,73.80
2022-09-16T12:12:26.922Z,73.80
2022-09-16T12:14:56.196Z,73.80
2022-09-16T12:17:28.055Z,73.70
2022-09-16T12:19:58.560Z,73.70
2022-09-16T12:22:29.566Z,73.70
2022-09-16T12:25:00.867Z,73.60
2022-09-16T12:27:35.654Z,73.50
2022-09-16T12:30:05.794Z,73.50
2022-09-16T12:32:39.088Z,73.50
2022-09-16T12:35:13.305Z,73.40
2022-09-16T12:37:45.276Z,73.40
2022-09-16T12:40:16.108Z,73.30
2022-09-16T12:43:15.119Z,73.30
2022-09-16T12:46:11.951Z,73.30
2022-09-16T12:49:21.795Z,73.30
2022-09-16T12:52:12.453Z,73.20
2022-09-16T12:55:08.071Z,73.20
2022-09-16T12:57:44.911Z,73.10
2022-09-16T13:00:15.697Z,73.00
2022-09-16T13:02:45.870Z,73.10
2022-09-16T13:05:19.571Z,73.10
2022-09-16T13:07:51.184Z,73.20
2022-09-16T13:10:26.386Z,73.10
2022-09-16T13:12:59.739Z,73.20
2022-09-16T13:15:30.328Z,73.10
2022-09-16T13:18:09.115Z,73.10
2022-09-16T13:20:41.291Z,73.20
2022-09-16T13:23:13.034Z,73.30
2022-09-16T13:25:47.158Z,73.30
2022-09-16T13:28:26.330Z,73.40
2022-09-16T13:30:54.508Z,73.40
2022-09-16T13:33:28.026Z,73.30
2022-09-16T13:36:17.213Z,73.20
2022-09-16T13:38:46.917Z,73.00
2022-09-16T13:41:15.257Z,73.00
2022-09-16T13:43:53.813Z,72.90
2022-09-16T13:46:30.831Z,72.80
2022-09-16T13:49:05.248Z,72.80
2022-09-16T13:51:39.806Z,72.50
2022-09-16T13:54:19.838Z,72.30
2022-09-16T13:56:54.419Z,72.20
2022-09-16T13:59:30.576Z,72.10
2022-09-16T14:02:05.078Z,71.60
2022-09-16T14:04:52.889Z,71.50
2022-09-16T14:07:29.490Z,71.40
2022-09-16T14:10:01.523Z,70.70
2022-09-16T14:12:36.087Z,70.70
2022-09-16T14:15:04.176Z,70.80
2022-09-16T14:17:34.989Z,69.90
2022-09-16T14:20:03.321Z,70.20
2022-09-16T14:22:33.739Z,70.30
2022-09-16T14:25:06.572Z,70.10
2022-09-16T14:27:41.097Z,69.50
2022-09-16T14:30:16.747Z,69.50
2022-09-16T14:32:44.901Z,69.40
2022-09-16T14:35:17.408Z,68.90
2022-09-16T14:37:47.399Z,68.80
2022-09-16T14:40:17.677Z,68.60
2022-09-16T14:42:47.206Z,68.30
2022-09-16T14:45:16.566Z,68.10
2022-09-16T14:47:51.745Z,67.80
2022-09-16T14:50:22.276Z,67.80
2022-09-16T14:52:56.706Z,67.30
2022-09-16T14:55:26.978Z,67.40
2022-09-16T14:57:55.034Z,67.20
2022-09-16T15:00:23.431Z,67.20
2022-09-16T15:02:53.021Z,66.70
2022-09-16T15:05:23.772Z,66.80
2022-09-16T15:08:12.613Z,66.60
2022-09-16T15:10:51.885Z,66.50
2022-09-16T15:13:21.620Z,65.90
2022-09-16T15:15:50.928Z,65.90
2022-09-16T15:18:24.239Z,65.50
2022-09-16T15:20:53.727Z,65.70
2022-09-16T15:23:24.420Z,66.80
2022-09-16T15:25:55.871Z,67.00
2022-09-16T15:28:24.070Z,67.00
2022-09-16T15:30:54.125Z,67.00
2022-09-16T15:33:31.083Z,66.80
2022-09-16T15:36:02.617Z,66.70
2022-09-16T15:38:31.218Z,66.60
2022-09-16T15:41:04.955Z,66.70
2022-09-16T15:43:36.565Z,66.70
2022-09-16T15:46:07.999Z,66.70
2022-09-16T15:48:37.724Z,66.80
2022-09-16T15:51:07.890Z,66.90
2022-09-16T15:53:39.589Z,66.90
2022-09-16T15:56:10.516Z,67.00
2022-09-16T15:58:41.890Z,67.10
2022-09-16T16:01:13.286Z,67.10
2022-09-16T16:03:50.541Z,67.20
2022-09-16T16:06:18.870Z,67.30
2022-09-16T16:08:48.428Z,67.30
2022-09-16T16:11:19.057Z,67.30
2022-09-16T16:13:47.347Z,67.40
2022-09-16T16:16:16.014Z,67.50
2022-09-16T16:18:44.533Z,67.50
2022-09-16T16:21:13.444Z,67.60
2022-09-16T16:23:41.532Z,67.70
2022-09-16T16:26:10.455Z,68.10
2022-09-16T16:28:39.970Z,69.40
2022-09-16T16:31:12.495Z,69.90
2022-09-16T16:33:44.695Z,70.30
2022-09-16T16:36:13.731Z,70.40
2022-09-16T16:38:41.876Z,70.50
2022-09-16T16:41:12.133Z,70.50
2022-09-16T16:43:41.623Z,70.60
2022-09-16T16:46:09.819Z,70.50
2022-09-16T16:48:38.158Z,70.50
2022-09-16T16:51:07.757Z,70.30
2022-09-16T16:53:35.852Z,70.30
2022-09-16T16:56:04.863Z,70.20
2022-09-16T16:58:33.127Z,70.20
2022-09-16T17:01:10.059Z,70.10
2022-09-16T17:03:38.477Z,70.20
2022-09-16T17:06:07.383Z,70.10
2022-09-16T17:08:35.782Z,70.10
2022-09-16T17:11:11.055Z,70.00
2022-09-16T17:13:39.304Z,70.10
2022-09-16T17:16:11.315Z,70.10
2022-09-16T17:18:40.165Z,70.20
2022-09-16T17:21:09.364Z,70.30
2022-09-16T17:23:37.591Z,70.50
2022-09-16T17:26:06.256Z,70.50
2022-09-16T17:28:34.334Z,70.70
2022-09-16T17:31:02.586Z,70.80
2022-09-16T17:33:32.169Z,70.80
2022-09-16T17:36:03.706Z,70.90
2022-09-16T17:38:31.788Z,71.00
2022-09-16T17:41:04.326Z,71.10
2022-09-16T17:43:32.960Z,71.10
2022-09-16T17:46:01.438Z,72.00
2022-09-16T17:48:31.034Z,71.10
2022-09-16T17:50:59.150Z,71.10
2022-09-16T17:53:27.256Z,71.10
2022-09-16T17:56:03.021Z,71.00
2022-09-16T17:58:31.372Z,71.00
2022-09-16T18:01:08.489Z,71.00
2022-09-16T18:03:38.265Z,70.90
2022-09-16T18:06:10.882Z,70.40
2022-09-16T18:08:39.043Z,70.60
2022-09-16T18:11:07.709Z,70.60
2022-09-16T18:13:36.529Z,70.40
2022-09-16T18:16:05.422Z,70.40
2022-09-16T18:18:33.735Z,71.00
2022-09-16T18:21:03.278Z,70.50
2022-09-16T18:23:31.418Z,70.80
2022-09-16T18:26:04.804Z,71.00
2022-09-16T18:28:42.105Z,71.10
2022-09-16T18:31:21.542Z,70.90
2022-09-16T18:33:51.746Z,71.00
2022-09-16T18:36:22.311Z,71.00
2022-09-16T18:38:51.797Z,70.90
2022-09-16T18:41:21.311Z,71.00
2022-09-16T18:43:53.013Z,71.20
2022-09-16T18:46:26.286Z,71.50
2022-09-16T18:48:55.237Z,71.70
2022-09-16T18:51:26.081Z,71.70
2022-09-16T18:53:55.723Z,71.90
2022-09-16T18:56:24.469Z,71.90
2022-09-16T18:59:17.218Z,72.00
2022-09-16T19:01:41.967Z,72.10
2022-09-16T19:04:11.403Z,72.20
2022-09-16T19:06:42.171Z,72.20
2022-09-16T19:09:12.308Z,72.30
2022-09-16T19:11:40.563Z,72.40
2022-09-16T19:14:09.458Z,72.40
2022-09-16T19:16:40.458Z,72.40
2022-09-16T19:19:08.849Z,72.50
2022-09-16T19:21:36.974Z,72.50
2022-09-16T19:24:08.510Z,72.50
2022-09-16T19:26:39.565Z,72.60
2022-09-16T19:29:07.857Z,72.60
2022-09-16T19:31:39.092Z,72.60
2022-09-16T19:34:07.273Z,72.80
2022-09-16T19:36:35.811Z,72.70
2022-09-16T19:39:06.153Z,72.80
2022-09-16T19:41:34.828Z,72.90
2022-09-16T19:44:05.041Z,72.90
2022-09-16T19:46:34.848Z,72.90
2022-09-16T19:49:03.179Z,72.90
2022-09-16T19:51:31.774Z,73.00
2022-09-16T19:54:00.838Z,73.00
2022-09-16T19:56:31.748Z,73.00
2022-09-16T19:59:01.417Z,72.90
2022-09-16T20:01:30.725Z,72.80
2022-09-16T20:03:58.970Z,72.80
2022-09-16T20:06:30.388Z,72.80
2022-09-16T20:08:59.791Z,72.80
2022-09-16T20:11:31.442Z,72.80
2022-09-16T20:14:00.412Z,72.80
2022-09-16T20:16:30.653Z,72.90
2022-09-16T20:18:58.881Z,72.80
2022-09-16T20:21:29.498Z,72.90
2022-09-16T20:23:57.824Z,73.10
2022-09-16T20:26:26.024Z,73.10
2022-09-16T20:28:56.312Z,72.80
2022-09-16T20:31:26.171Z,72.30
2022-09-16T20:33:54.360Z,71.70
2022-09-16T20:36:23.666Z,71.20
2022-09-16T20:38:52.442Z,70.90
2022-09-16T20:41:21.875Z,70.60
2022-09-16T20:43:50.157Z,70.40
2022-09-16T20:46:20.851Z,70.20
2022-09-16T20:48:49.084Z,70.10
2022-09-16T20:51:17.917Z,70.20
2022-09-16T20:53:46.209Z,70.00
2022-09-16T20:56:15.306Z,69.80
2022-09-16T20:58:43.402Z,69.60
2022-09-16T21:01:12.967Z,69.80
2022-09-16T21:03:42.812Z,69.80
2022-09-16T21:06:11.887Z,70.00
2022-09-16T21:08:39.918Z,69.90
2022-09-16T21:11:08.258Z,69.80
2022-09-16T21:13:36.287Z,69.80
2022-09-16T21:16:04.698Z,70.10
2022-09-16T21:18:33.027Z,70.00
2022-09-16T21:21:03.806Z,69.70
2022-09-16T21:23:32.010Z,69.50
2022-09-16T21:26:03.416Z,69.40
2022-09-16T21:28:31.849Z,69.40
2022-09-16T21:31:04.219Z,69.30
2022-09-16T21:33:35.923Z,69.30
2022-09-16T21:36:05.815Z,69.10
2022-09-16T21:38:34.252Z,68.90
2022-09-16T21:41:03.182Z,68.70
2022-09-16T21:43:32.431Z,68.50
2022-09-16T21:46:00.567Z,68.40
2022-09-16T21:48:31.388Z,68.30
2022-09-16T21:51:02.678Z,68.20
2022-09-16T21:53:33.390Z,68.00
2022-09-16T21:56:02.255Z,67.90
2022-09-16T21:58:30.321Z,67.90
2022-09-16T22:01:07.745Z,67.80
2022-09-16T22:03:36.108Z,67.70
2022-09-16T22:06:04.498Z,67.70
2022-09-16T22:08:34.168Z,67.70
2022-09-16T22:11:02.744Z,67.50
2022-09-16T22:13:31.415Z,67.50
2022-09-16T22:15:59.788Z,67.40
2022-09-16T22:18:28.570Z,67.40
2022-09-16T22:20:58.003Z,67.40
2022-09-16T22:23:26.183Z,68.50
2022-09-16T22:25:55.588Z,68.90
2022-09-16T22:28:23.776Z,69.00
2022-09-16T22:30:51.885Z,69.30
2022-09-16T22:33:19.931Z,69.40
2022-09-16T22:35:48.226Z,69.40
2022-09-16T22:38:16.278Z,69.30
2022-09-16T22:40:44.336Z,69.60
2022-09-16T22:43:13.782Z,69.90
2022-09-16T22:45:41.839Z,70.00
2022-09-16T22:48:09.888Z,70.10
2022-09-16T22:50:37.981Z,70.20
2022-09-16T22:53:06.036Z,70.40
2022-09-16T22:55:34.076Z,70.50
2022-09-16T22:58:02.227Z,70.60
2022-09-16T23:00:31.654Z,70.70
2022-09-16T23:02:59.750Z,70.80
2022-09-16T23:05:27.903Z,70.90
2022-09-16T23:07:55.939Z,71.00
2022-09-16T23:10:24.037Z,71.10
2022-09-16T23:12:52.152Z,71.20
2022-09-16T23:15:20.236Z,71.20
2022-09-16T23:17:49.678Z,71.40
2022-09-16T23:20:17.860Z,71.50
2022-09-16T23:22:45.962Z,71.60
2022-09-16T23:25:14.048Z,71.70
2022-09-16T23:27:42.143Z,71.70
2022-09-16T23:30:11.377Z,71.80
2022-09-16T23:32:39.487Z,71.90
2022-09-16T23:35:09.771Z,71.90
2022-09-16T23:37:37.891Z,72.10
2022-09-16T23:40:07.113Z,72.10
2022-09-16T23:42:37.213Z,72.20
2022-09-16T23:45:05.990Z,72.20
2022-09-16T23:47:34.110Z,72.50
2022-09-16T23:50:02.250Z,72.50
2022-09-16T23:52:31.662Z,72.60
2022-09-16T23:54:59.875Z,72.60
2022-09-16T23:57:27.951Z,72.80
2022-09-16T23:59:56.243Z,72.80
